Time;durP1;ratioP1;P1;durP2;ratioP2;P2;SDS_P1;SDS_P2;PMS_P1;PMS_P2;Temp;Humidity;BMP_temperature;BMP_pressure;BME280_temperature;BME280_humidity;BME280_pressure;Samples;Min_cycle;Max_cycle;Signal;HPM_P1;HPM_P2
2022/08/06 00:00:49;;;;;;;4.15;1.38;;;;;;;10.15;100.00;102742.16;5115885;27;20027;-75
2022/08/06 00:03:15;;;;;;;6.93;1.40;;;;;;;10.12;100.00;102749.44;5116193;28;20024;-75
2022/08/06 00:05:40;;;;;;;4.65;1.40;;;;;;;10.11;100.00;102743.25;5115474;28;20499;-75
2022/08/06 00:08:06;;;;;;;4.88;1.40;;;;;;;10.09;100.00;102753.16;5115191;28;20442;-75
2022/08/06 00:10:31;;;;;;;2.30;1.40;;;;;;;10.06;100.00;102753.28;5115897;28;20045;-75
2022/08/06 00:13:02;;;;;;;5.18;1.42;;;;;;;10.02;100.00;102755.28;5116175;28;20111;-75
2022/08/06 00:15:28;;;;;;;3.90;1.42;;;;;;;10.00;100.00;102748.34;5114654;28;20042;-75
2022/08/06 00:17:54;;;;;;;4.05;1.15;;;;;;;9.96;100.00;102752.13;5115094;28;20490;-75
2022/08/06 00:20:19;;;;;;;2.67;1.20;;;;;;;9.92;100.00;102758.56;5115263;28;20118;-75
2022/08/06 00:22:44;;;;;;;2.95;1.08;;;;;;;9.90;100.00;102761.31;5115353;28;20032;-75
2022/08/06 00:25:10;;;;;;;4.55;1.42;;;;;;;9.88;100.00;102756.09;5115628;28;20051;-75
2022/08/06 00:27:36;;;;;;;3.28;1.52;;;;;;;9.91;100.00;102749.72;5115408;27;20035;-74
2022/08/06 00:30:02;;;;;;;3.60;1.27;;;;;;;9.90;100.00;102753.34;5115489;28;20111;-74
2022/08/06 00:32:27;;;;;;;6.18;1.60;;;;;;;9.92;100.00;102758.56;5115409;28;20489;-74
2022/08/06 00:34:52;;;;;;;7.75;1.80;;;;;;;9.91;100.00;102762.16;5115228;28;20047;-74
2022/08/06 00:37:18;;;;;;;4.90;1.52;;;;;;;9.86;100.00;102762.44;5115526;28;20038;-74
2022/08/06 00:39:43;;;;;;;3.05;1.20;;;;;;;9.86;100.00;102767.75;5115571;28;20023;-74
2022/08/06 00:42:08;;;;;;;3.53;1.50;;;;;;;9.84;100.00;102775.81;5114657;28;20202;-74
2022/08/06 00:44:34;;;;;;;3.53;1.30;;;;;;;9.81;100.00;102781.31;5114835;28;20489;-75
2022/08/06 00:47:00;;;;;;;2.70;1.27;;;;;;;9.79;100.00;102787.66;5115568;28;20040;-74
2022/08/06 00:49:26;;;;;;;4.95;1.23;;;;;;;9.73;100.00;102780.88;5115312;28;20040;-74
2022/08/06 00:51:52;;;;;;;2.55;1.20;;;;;;;9.72;100.00;102787.16;5114075;28;20039;-75
2022/08/06 00:54:19;;;;;;;6.55;1.63;;;;;;;9.74;100.00;102792.38;5115116;28;20031;-75
2022/08/06 00:56:45;;;;;;;6.85;1.70;;;;;;;9.75;100.00;102786.09;5114902;28;20491;-75
2022/08/06 00:59:10;;;;;;;5.15;1.63;;;;;;;9.76;100.00;102793.13;5115211;28;20037;-74
2022/08/06 01:01:35;;;;;;;3.85;1.55;;;;;;;9.76;100.00;102791.31;5115270;28;20032;-75
2022/08/06 01:04:01;;;;;;;4.38;1.42;;;;;;;9.76;100.00;102788.66;5114765;28;20027;-75
2022/08/06 01:06:26;;;;;;;6.82;1.63;;;;;;;9.78;100.00;102783.25;5114720;28;20059;-75
2022/08/06 01:08:52;;;;;;;3.40;1.30;;;;;;;9.79;100.00;102788.53;5113323;28;20050;-75
2022/08/06 01:11:17;;;;;;;3.13;1.17;;;;;;;9.77;100.00;102793.06;5114775;28;20031;-74
2022/08/06 01:13:42;;;;;;;5.57;1.63;;;;;;;9.82;100.00;102800.75;5114568;28;20461;-75
2022/08/06 01:16:49;;;;;;;4.82;1.50;;;;;;;9.81;100.00;102797.25;5114563;28;20100;-74
2022/08/06 01:19:27;;;;;;;2.90;1.40;;;;;;;9.80;100.00;102798.19;5097117;28;20051;-74
2022/08/06 01:22:09;;;;;;;4.68;1.58;;;;;;;9.79;100.00;102798.28;5114593;28;20111;-74
2022/08/06 01:24:40;;;;;;;2.20;1.27;;;;;;;9.77;100.00;102797.53;5114459;28;20034;-73
2022/08/06 01:27:43;;;;;;;3.17;1.48;;;;;;;9.75;100.00;102805.59;5113434;28;20110;-74
2022/08/06 01:30:13;;;;;;;6.55;1.83;;;;;;;9.75;100.00;102804.69;5114225;28;20034;-74
2022/08/06 01:32:46;;;;;;;2.50;1.33;;;;;;;9.74;100.00;102797.69;5114236;28;20388;-74
2022/08/06 01:35:19;;;;;;;3.85;1.80;;;;;;;9.71;100.00;102807.53;5114471;28;20036;-73
2022/08/06 01:37:52;;;;;;;3.38;1.48;;;;;;;9.68;100.00;102798.88;5115142;28;20027;-74
2022/08/06 01:40:25;;;;;;;3.45;1.45;;;;;;;9.69;100.00;102801.47;5114565;28;20034;-73
2022/08/06 01:42:54;;;;;;;5.85;1.70;;;;;;;9.71;100.00;102802.22;5112856;28;20080;-74
2022/08/06 01:45:23;;;;;;;3.38;1.85;;;;;;;9.74;100.00;102806.50;5114640;28;20055;-73
2022/08/06 01:47:54;;;;;;;4.38;1.80;;;;;;;9.75;100.00;102800.25;5113838;28;20462;-74
2022/08/06 01:50:25;;;;;;;6.22;1.40;;;;;;;9.73;100.00;102796.81;5114025;28;20024;-74
2022/08/06 01:52:52;;;;;;;4.90;1.60;;;;;;;9.73;100.00;102798.63;5114182;28;20031;-74
2022/08/06 01:55:20;;;;;;;4.13;1.65;;;;;;;9.75;100.00;102807.38;5113068;28;20465;-75
2022/08/06 01:57:52;;;;;;;3.92;1.80;;;;;;;9.68;100.00;102799.72;5114224;28;20032;-75
2022/08/06 02:00:19;;;;;;;5.18;2.15;;;;;;;9.64;100.00;102800.88;5113725;28;20077;-74
2022/08/06 02:02:46;;;;;;;5.93;1.60;;;;;;;9.58;100.00;102803.00;5113743;28;20028;-75
2022/08/06 02:05:14;;;;;;;2.90;1.52;;;;;;;9.57;100.00;102796.84;5113772;28;20043;-74
2022/08/06 02:07:42;;;;;;;7.32;1.88;;;;;;;9.57;100.00;102791.50;5114029;28;20097;-74
2022/08/06 02:10:09;;;;;;;3.22;1.40;;;;;;;9.58;100.00;102787.91;5113671;28;20160;-74
2022/08/06 02:12:37;;;;;;;5.38;1.45;;;;;;;9.55;100.00;102796.03;5113509;28;20032;-74
2022/08/06 02:15:26;;;;;;;6.88;1.77;;;;;;;9.51;100.00;102790.06;5114022;28;20038;-74
2022/08/06 02:17:56;;;;;;;3.38;1.52;;;;;;;9.51;100.00;102797.16;5105227;28;20054;-74
2022/08/06 02:20:40;;;;;;;3.38;1.52;;;;;;;9.45;100.00;102798.38;5113982;28;20024;-74
2022/08/06 02:23:14;;;;;;;5.20;1.40;;;;;;;9.45;100.00;102803.69;5113120;28;20031;-74
2022/08/06 02:25:41;;;;;;;4.25;1.60;;;;;;;9.43;100.00;102797.56;5114035;28;20039;-74
2022/08/06 02:28:09;;;;;;;4.15;1.67;;;;;;;9.43;100.00;102796.72;5113616;28;20046;-74
2022/08/06 02:30:38;;;;;;;3.72;1.40;;;;;;;9.43;100.00;102800.22;5113431;28;20467;-74
2022/08/06 02:33:05;;;;;;;2.55;1.20;;;;;;;9.44;100.00;102801.94;5113262;28;20028;-74
2022/08/06 02:35:36;;;;;;;5.50;1.73;;;;;;;9.43;100.00;102800.22;5113426;28;20035;-74
2022/08/06 02:38:07;;;;;;;4.90;1.15;;;;;;;9.40;100.00;102794.22;5113551;28;20114;-74
2022/08/06 02:40:37;;;;;;;3.33;1.20;;;;;;;9.37;100.00;102797.06;5113273;28;20465;-74
2022/08/06 02:43:12;;;;;;;1.95;1.10;;;;;;;9.32;100.00;102800.81;5113144;28;20063;-74
2022/08/06 02:45:53;;;;;;;3.80;1.10;;;;;;;9.28;100.00;102799.25;5113881;28;20030;-74
2022/08/06 02:48:24;;;;;;;4.80;1.40;;;;;;;9.25;100.00;102807.41;5113785;28;20031;-74
2022/08/06 02:50:51;;;;;;;2.72;1.10;;;;;;;9.23;100.00;102793.34;5113259;28;20111;-74
2022/08/06 02:53:21;;;;;;;4.57;1.30;;;;;;;9.24;100.00;102799.50;5113237;28;20028;-74
2022/08/06 02:55:50;;;;;;;3.88;1.17;;;;;;;9.24;100.00;102813.66;5113178;28;20054;-74
2022/08/06 02:58:31;;;;;;;3.80;1.20;;;;;;;9.27;100.00;102818.81;5113319;28;20020;-74
2022/08/06 03:00:59;;;;;;;4.80;1.20;;;;;;;9.28;100.00;102812.53;5113218;28;20346;-74
2022/08/06 03:03:25;;;;;;;4.82;1.40;;;;;;;9.31;100.00;102817.69;5113056;28;20039;-75
2022/08/06 03:05:54;;;;;;;1.88;1.08;;;;;;;9.31;100.00;102822.16;5113715;28;20085;-74
2022/08/06 03:08:22;;;;;;;3.70;1.02;;;;;;;9.29;100.00;102816.06;5117303;28;20019;-73
2022/08/06 03:10:50;;;;;;;5.80;1.17;;;;;;;9.27;100.00;102818.81;5116662;28;20393;-74
2022/08/06 03:13:17;;;;;;;3.17;1.23;;;;;;;9.28;100.00;102824.97;5116531;28;20073;-74
2022/08/06 03:15:44;;;;;;;2.00;1.13;;;;;;;9.26;100.00;102819.75;5116868;28;20043;-73
2022/08/06 03:18:12;;;;;;;1.83;1.52;;;;;;;9.26;100.00;102824.22;5116424;28;20054;-74
2022/08/06 03:20:40;;;;;;;1.33;1.00;;;;;;;9.26;100.00;102821.56;5116660;28;20042;-74
2022/08/06 03:23:08;;;;;;;3.47;1.30;;;;;;;9.25;100.00;102825.97;5116625;27;20032;-74
2022/08/06 03:25:36;;;;;;;3.35;1.23;;;;;;;9.25;100.00;102822.47;5116570;28;20027;-74
2022/08/06 03:28:02;;;;;;;3.60;1.27;;;;;;;9.24;100.00;102826.06;5116708;28;20169;-74
2022/08/06 03:30:29;;;;;;;2.65;0.90;;;;;;;9.22;100.00;102820.00;5117117;28;20088;-74
2022/08/06 03:32:56;;;;;;;2.17;1.10;;;;;;;9.17;100.00;102814.94;5116929;28;20112;-74
2022/08/06 03:35:22;;;;;;;0.80;0.80;;;;;;;9.20;100.00;102821.88;5116521;28;20024;-74
2022/08/06 03:37:51;;;;;;;1.15;0.82;;;;;;;9.17;100.00;102818.44;5116455;27;20038;-74
2022/08/06 03:40:17;;;;;;;3.67;1.30;;;;;;;9.20;100.00;102824.53;5116297;28;20120;-75
2022/08/06 03:42:43;;;;;;;2.05;0.98;;;;;;;9.19;100.00;102828.97;5116877;28;20044;-75
2022/08/06 03:45:09;;;;;;;2.28;1.08;;;;;;;9.21;100.00;102820.91;5116527;28;20105;-75
2022/08/06 03:47:44;;;;;;;1.42;1.15;;;;;;;9.22;100.00;102830.63;5116275;28;20034;-75
2022/08/06 03:50:13;;;;;;;2.95;0.90;;;;;;;9.18;100.00;102832.56;5116108;28;20071;-75
2022/08/06 03:52:48;;;;;;;4.50;1.17;;;;;;;9.12;100.00;102832.88;5116867;28;20024;-75
2022/08/06 03:55:23;;;;;;;2.05;1.00;;;;;;;9.09;100.00;102827.75;5115766;28;20030;-75
2022/08/06 03:57:51;;;;;;;0.82;0.80;;;;;;;9.05;100.00;102840.34;5116132;28;20073;-75
2022/08/06 04:00:20;;;;;;;1.58;1.00;;;;;;;9.00;100.00;102834.38;5115873;28;20034;-75
2022/08/06 04:02:54;;;;;;;3.42;0.90;;;;;;;9.00;100.00;102839.69;5115923;28;20028;-75
2022/08/06 04:05:22;;;;;;;1.80;1.00;;;;;;;9.00;100.00;102842.34;5115809;28;20331;-75
2022/08/06 04:07:49;;;;;;;1.50;1.05;;;;;;;8.99;100.00;102849.47;5116032;28;20341;-74
2022/08/06 04:10:17;;;;;;;2.13;0.90;;;;;;;8.99;100.00;102854.78;5115832;28;20027;-74
2022/08/06 04:12:44;;;;;;;1.77;0.90;;;;;;;9.03;100.00;102854.63;5114720;28;20444;-75
2022/08/06 04:15:11;;;;;;;0.77;0.70;;;;;;;9.03;100.00;102849.31;5116154;28;20042;-75
2022/08/06 04:17:38;;;;;;;1.65;1.00;;;;;;;9.03;100.00;102851.97;5114773;28;20354;-75
2022/08/06 04:20:06;;;;;;;4.18;1.20;;;;;;;9.03;100.00;102846.66;5115841;28;20537;-75
2022/08/06 04:22:31;;;;;;;1.20;0.95;;;;;;;9.02;100.00;102844.94;5115608;28;20055;-75
2022/08/06 04:24:57;;;;;;;2.92;0.90;;;;;;;8.99;100.00;102856.59;5115497;28;20059;-75
2022/08/06 04:27:26;;;;;;;1.25;0.98;;;;;;;9.00;100.00;102851.19;5115344;28;20032;-75
2022/08/06 04:29:52;;;;;;;4.05;1.08;;;;;;;8.99;100.00;102853.94;5115430;28;20032;-75
2022/08/06 04:32:19;;;;;;;1.40;1.00;;;;;;;9.03;100.00;102862.59;5115286;28;20031;-74
2022/08/06 04:34:46;;;;;;;3.95;1.20;;;;;;;9.05;100.00;102861.56;5115059;28;20038;-74
2022/08/06 04:37:12;;;;;;;2.67;1.10;;;;;;;9.05;100.00;102855.41;5113964;28;20456;-75
2022/08/06 04:39:37;;;;;;;1.65;0.88;;;;;;;9.06;100.00;102860.66;5115378;28;20038;-74
2022/08/06 04:42:04;;;;;;;4.13;1.20;;;;;;;9.09;100.00;102862.25;5115107;28;20028;-74
2022/08/06 04:44:30;;;;;;;0.93;0.75;;;;;;;9.11;100.00;102853.28;5114351;28;20345;-75
2022/08/06 04:46:57;;;;;;;0.75;0.70;;;;;;;9.13;100.00;102859.38;5114862;28;20038;-74
2022/08/06 04:49:22;;;;;;;2.45;1.02;;;;;;;9.15;100.00;102861.94;5114679;28;20130;-74
2022/08/06 04:51:48;;;;;;;4.95;1.63;;;;;;;9.20;100.00;102864.38;5115026;28;20031;-75
2022/08/06 04:54:15;;;;;;;2.53;1.10;;;;;;;9.24;100.00;102866.78;5115091;28;20461;-74
2022/08/06 04:56:41;;;;;;;1.98;1.10;;;;;;;9.25;100.00;102867.63;5115137;28;20102;-74
2022/08/06 04:59:07;;;;;;;1.02;0.82;;;;;;;9.27;100.00;102879.03;5114606;28;20129;-75
2022/08/06 05:01:32;;;;;;;1.67;0.98;;;;;;;9.29;100.00;102878.03;5115009;28;20154;-74
2022/08/06 05:03:58;;;;;;;2.47;0.98;;;;;;;9.32;100.00;102874.34;5114599;28;20055;-74
2022/08/06 05:06:38;;;;;;;1.02;0.80;;;;;;;9.35;100.00;102882.16;5114968;28;20039;-75
2022/08/06 05:09:09;;;;;;;1.17;0.88;;;;;;;9.39;100.00;102877.53;5114475;28;20533;-74
2022/08/06 05:11:43;;;;;;;1.35;1.00;;;;;;;9.43;100.00;102879.09;5115553;28;20110;-74
2022/08/06 05:14:15;;;;;;;1.48;1.20;;;;;;;9.46;100.00;102881.56;5113972;28;20369;-75
2022/08/06 05:16:44;;;;;;;3.13;1.17;;;;;;;9.53;100.00;102886.47;5114020;28;20374;-75
2022/08/06 05:19:17;;;;;;;2.95;1.10;;;;;;;9.59;100.00;102893.28;5114179;28;20047;-76
2022/08/06 05:21:45;;;;;;;1.60;0.95;;;;;;;9.63;100.00;102894.84;5114708;28;20126;-74
2022/08/06 05:24:10;;;;;;;3.10;1.20;;;;;;;9.65;100.00;102892.94;5114787;27;20110;-75
2022/08/06 05:26:36;;;;;;;3.17;1.00;;;;;;;9.72;100.00;102893.47;5114726;28;20060;-75
2022/08/06 05:29:02;;;;;;;1.65;1.10;;;;;;;9.77;100.00;102896.72;5114426;28;20036;-75
2022/08/06 05:31:32;;;;;;;1.98;0.98;;;;;;;9.81;100.00;102900.09;5114157;28;20035;-74
2022/08/06 05:33:57;;;;;;;1.58;1.00;;;;;;;9.89;100.00;102901.38;5114176;28;20035;-75
2022/08/06 05:36:23;;;;;;;1.42;1.33;;;;;;;9.97;100.00;102906.28;5114130;28;20038;-74
2022/08/06 05:38:48;;;;;;;1.90;1.00;;;;;;;10.02;100.00;102914.00;5113750;28;20374;-74
2022/08/06 05:41:13;;;;;;;1.50;1.00;;;;;;;10.07;100.00;102907.47;5113579;28;20034;-74
2022/08/06 05:43:40;;;;;;;2.45;1.10;;;;;;;10.12;100.00;102909.03;5114538;28;20028;-76
2022/08/06 05:46:10;;;;;;;3.95;1.48;;;;;;;10.18;100.00;102912.22;5114389;28;20377;-76
2022/08/06 05:48:41;;;;;;;1.08;0.88;;;;;;;10.27;100.00;102910.84;5114007;28;20030;-74
2022/08/06 05:51:15;;;;;;;0.93;0.80;;;;;;;10.37;100.00;102920.03;5114469;28;20084;-74
2022/08/06 05:53:44;;;;;;;1.67;1.13;;;;;;;10.47;100.00;102925.69;5114493;28;20024;-74
2022/08/06 05:56:15;;;;;;;1.95;1.20;;;;;;;10.55;100.00;102926.13;5114094;28;20023;-74
2022/08/06 05:58:55;;;;;;;1.33;0.98;;;;;;;10.67;100.00;102921.03;5114287;28;20111;-74
2022/08/06 06:01:22;;;;;;;1.85;0.80;;;;;;;10.81;100.00;102934.41;5113551;28;20130;-74
2022/08/06 06:03:49;;;;;;;2.13;0.90;;;;;;;10.94;100.00;102934.53;5113923;28;20055;-74
2022/08/06 06:06:15;;;;;;;2.40;0.98;;;;;;;11.09;100.00;102930.97;5113625;28;20499;-74
2022/08/06 06:08:41;;;;;;;1.70;0.80;;;;;;;11.29;100.00;102942.25;5113638;28;20031;-75
2022/08/06 06:11:08;;;;;;;1.73;0.90;;;;;;;11.47;100.00;102927.78;5113599;28;20393;-75
2022/08/06 06:13:34;;;;;;;1.48;0.90;;;;;;;11.71;100.00;102943.22;5113304;28;20059;-75
2022/08/06 06:16:22;;;;;;;2.15;0.90;;;;;;;11.94;100.00;102947.19;5113443;28;20082;-74
2022/08/06 06:19:18;;;;;;;1.00;0.80;;;;;;;12.15;100.00;102950.28;5113580;28;20054;-75
2022/08/06 06:22:17;;;;;;;1.70;0.93;;;;;;;12.41;100.00;102941.56;5113224;28;20019;-74
2022/08/06 06:24:50;;;;;;;1.70;0.80;;;;;;;12.67;100.00;102948.72;5113047;28;20105;-73
2022/08/06 06:27:28;;;;;;;2.33;0.90;;;;;;;12.85;100.00;102946.63;5113891;28;20157;-73
2022/08/06 06:30:06;;;;;;;3.50;0.88;;;;;;;13.10;100.00;102949.47;5112944;28;20469;-73
2022/08/06 06:33:16;;;;;;;2.70;0.82;;;;;;;13.37;100.00;102949.41;5113079;28;20168;-74
2022/08/06 06:35:51;;;;;;;5.00;0.98;;;;;;;13.56;100.00;102952.53;5088925;28;20032;-74
2022/08/06 06:38:40;;;;;;;1.92;0.70;;;;;;;13.72;100.00;102949.63;5113243;28;20035;-74
2022/08/06 06:41:13;;;;;;;2.00;0.80;;;;;;;13.91;99.57;102956.34;5116211;28;20162;-74
2022/08/06 06:43:46;;;;;;;4.15;1.08;;;;;;;14.07;96.21;102958.78;5117383;28;20020;-74
2022/08/06 06:46:49;;;;;;;1.73;0.80;;;;;;;14.27;90.76;102955.53;5117494;28;20042;-74
2022/08/06 06:49:24;;;;;;;1.10;0.68;;;;;;;14.43;89.38;102955.22;5098095;28;20435;-74
2022/08/06 06:51:56;;;;;;;4.43;0.93;;;;;;;14.57;88.44;102962.28;5117171;28;20059;-74
2022/08/06 06:54:30;;;;;;;;;;;;;;;14.76;90.96;102955.56;5117566;28;20035;-76
2022/08/06 06:56:56;;;;;;;2.00;0.80;;;;;;;14.90;89.25;102960.75;5117044;28;19908;-75
2022/08/06 06:59:32;;;;;;;1.20;0.60;;;;;;;15.03;87.02;102968.69;5116990;28;20129;-75
2022/08/06 07:01:58;;;;;;;0.95;0.70;;;;;;;15.19;84.27;102956.81;5117012;28;20038;-75
2022/08/06 07:04:26;;;;;;;4.32;0.75;;;;;;;15.41;84.12;102964.91;5098610;28;20028;-75
2022/08/06 07:06:54;;;;;;;4.20;0.95;;;;;;;15.59;80.36;102964.44;5116862;27;20031;-74
2022/08/06 07:09:24;;;;;;;0.77;0.65;;;;;;;15.78;79.96;102969.22;5116963;28;20034;-77
2022/08/06 07:11:53;;;;;;;3.08;0.98;;;;;;;15.93;79.04;102968.03;5117589;28;20032;-77
2022/08/06 07:14:23;;;;;;;3.47;0.63;;;;;;;16.02;78.79;102969.97;5117098;28;20051;-76
2022/08/06 07:16:53;;;;;;;3.45;0.70;;;;;;;16.12;78.15;102970.09;5116635;28;20032;-76
2022/08/06 07:19:19;;;;;;;0.80;0.70;;;;;;;16.19;75.44;102975.81;5117007;28;20125;-76
2022/08/06 07:21:47;;;;;;;3.50;1.13;;;;;;;16.34;76.84;102973.72;5116598;28;20528;-77
2022/08/06 07:24:14;;;;;;;3.85;0.80;;;;;;;16.47;69.09;102981.63;5116659;28;20031;-75
2022/08/06 07:26:45;;;;;;;4.13;0.80;;;;;;;16.73;71.09;102979.47;5115587;28;20032;-74
2022/08/06 07:29:12;;;;;;;6.73;1.20;;;;;;;16.95;69.59;102977.72;5116343;27;20058;-75
2022/08/06 07:31:40;;;;;;;2.00;0.77;;;;;;;17.02;67.80;102981.59;5116906;28;20031;-76
2022/08/06 07:34:06;;;;;;;3.40;1.42;;;;;;;16.90;67.12;102975.41;5116466;28;20028;-81
2022/08/06 07:36:33;;;;;;;4.90;1.02;;;;;;;16.74;68.78;102987.41;5116543;28;20039;-77
2022/08/06 07:39:03;;;;;;;3.50;0.70;;;;;;;16.54;68.33;102996.25;5116746;28;20047;-78
2022/08/06 07:41:29;;;;;;;5.00;0.80;;;;;;;16.40;70.93;102992.00;5116290;28;20020;-79
2022/08/06 07:43:58;;;;;;;1.50;0.65;;;;;;;16.43;71.63;102991.75;5116320;28;20032;-75
2022/08/06 07:46:37;;;;;;;1.88;0.70;;;;;;;16.51;71.11;102996.50;5116863;28;20035;-75
2022/08/06 07:49:04;;;;;;;2.70;0.70;;;;;;;16.61;70.09;102985.88;5116105;28;20027;-76
2022/08/06 07:51:34;;;;;;;2.13;0.73;;;;;;;16.85;69.06;102991.88;5115398;28;20027;-80
2022/08/06 07:54:03;;;;;;;1.95;0.73;;;;;;;17.23;67.64;102986.97;5115916;28;20032;-78
2022/08/06 07:56:28;;;;;;;1.80;0.85;;;;;;;17.61;64.86;102989.03;5116090;28;20031;-78
2022/08/06 07:58:55;;;;;;;1.13;0.73;;;;;;;17.91;65.07;102987.38;5116464;28;20030;-76
2022/08/06 08:01:22;;;;;;;1.52;0.70;;;;;;;18.19;62.94;102992.16;5116084;28;20362;-75
2022/08/06 08:06:32;;;;;;;2.78;0.80;;;;;;;18.73;59.41;102984.59;5115972;28;20510;-81
2022/08/06 08:09:04;;;;;;;3.92;0.70;;;;;;;19.01;58.29;102986.47;5115822;28;20049;-75
2022/08/06 08:11:31;;;;;;;2.47;0.77;;;;;;;19.27;58.00;102993.13;5115726;28;20063;-78
2022/08/06 08:14:02;;;;;;;1.35;0.70;;;;;;;19.26;55.77;102999.50;5115747;28;20035;-75
2022/08/06 08:16:27;;;;;;;1.83;0.90;;;;;;;19.06;57.27;102994.13;5116156;28;20028;-76
2022/08/06 08:18:54;;;;;;;4.68;0.63;;;;;;;18.95;57.06;102995.13;5113871;28;20052;-76
2022/08/06 08:21:21;;;;;;;3.88;0.70;;;;;;;19.16;56.85;102997.66;5115462;28;20038;-79
2022/08/06 08:23:47;;;;;;;3.58;0.52;;;;;;;19.46;55.92;102993.06;5115290;28;20384;-77
2022/08/06 08:26:13;;;;;;;1.48;0.65;;;;;;;19.70;55.61;102999.84;5115707;28;20031;-81
2022/08/06 08:28:39;;;;;;;2.40;0.80;;;;;;;19.86;53.63;103002.78;5115438;28;20038;-78
2022/08/06 08:31:06;;;;;;;4.53;0.70;;;;;;;19.82;51.46;103000.53;5115436;28;20035;-77
2022/08/06 08:33:32;;;;;;;2.15;0.90;;;;;;;19.58;51.51;103003.72;5115338;28;20078;-77
2022/08/06 08:35:58;;;;;;;2.15;0.60;;;;;;;19.52;52.24;103002.44;5114609;28;20031;-78
2022/08/06 08:38:34;;;;;;;3.78;0.70;;;;;;;20.04;50.84;103002.84;5115634;28;20510;-77
2022/08/06 08:41:06;;;;;;;2.13;0.63;;;;;;;20.57;50.07;103005.81;5113833;28;20043;-77
2022/08/06 08:43:50;;;;;;;1.55;0.70;;;;;;;21.41;49.08;103006.44;5115093;28;20457;-79
2022/08/06 08:46:17;;;;;;;1.13;0.70;;;;;;;21.96;46.25;103005.22;5115075;28;20560;-77
2022/08/06 08:48:43;;;;;;;3.97;0.73;;;;;;;22.39;43.98;102994.41;5114518;27;20035;-77
2022/08/06 08:51:12;;;;;;;3.05;0.80;;;;;;;22.71;43.92;103008.03;5114668;28;20468;-77
2022/08/06 08:53:43;;;;;;;1.23;0.73;;;;;;;22.83;42.85;103003.13;5114879;28;20031;-78
2022/08/06 08:56:11;;;;;;;2.13;0.75;;;;;;;22.96;43.26;103002.63;5113979;28;20126;-81
2022/08/06 08:58:39;;;;;;;1.38;0.68;;;;;;;23.09;44.23;103001.25;5115009;28;20031;-82
2022/08/06 09:01:07;;;;;;;0.85;0.47;;;;;;;23.00;42.24;103008.56;5096616;28;20474;-81
2022/08/06 09:03:34;;;;;;;4.93;1.05;;;;;;;23.13;42.78;103003.50;5114831;28;20393;-82
2022/08/06 09:06:01;;;;;;;1.98;0.70;;;;;;;23.40;41.38;103002.28;5116174;28;20034;-85
2022/08/06 09:08:27;;;;;;;1.30;0.70;;;;;;;22.89;41.09;103005.16;5115291;28;20035;-81
2022/08/06 09:10:52;;;;;;;2.75;0.80;;;;;;;22.04;44.78;103007.16;5114940;28;20108;-86
2022/08/06 09:13:18;;;;;;;0.98;0.50;;;;;;;21.83;45.63;103009.22;5115487;28;20405;-82
2022/08/06 09:15:43;;;;;;;1.55;0.85;;;;;;;23.09;43.03;103004.81;5113526;28;20062;-81
2022/08/06 09:18:16;;;;;;;2.65;0.95;;;;;;;24.43;40.41;103005.16;5113505;28;20056;-86
2022/08/06 09:20:42;;;;;;;2.55;0.70;;;;;;;25.86;36.87;103009.88;5114458;28;20032;-82
2022/08/06 09:23:07;;;;;;;2.88;0.50;;;;;;;27.15;35.28;103005.63;5114395;28;20053;-86
2022/08/06 09:25:39;;;;;;;1.35;0.68;;;;;;;28.06;32.80;103001.16;5096398;28;20055;-82
2022/08/06 09:28:26;;;;;;;2.00;0.70;;;;;;;28.58;31.91;103009.75;5114736;28;20031;-85
2022/08/06 09:31:06;;;;;;;2.45;0.80;;;;;;;27.36;32.29;103007.47;5113242;28;20366;-82
2022/08/06 09:33:34;;;;;;;1.20;0.50;;;;;;;27.47;32.58;103006.09;5114861;28;20020;-83
2022/08/06 09:36:05;;;;;;;4.93;0.63;;;;;;;28.21;32.51;103006.50;5114628;28;20059;-81
2022/08/06 09:38:31;;;;;;;;;;;;;;;28.78;28.16;103005.19;5115654;28;20088;-85
2022/08/06 09:41:05;;;;;;;1.13;0.60;;;;;;;28.71;31.29;102996.09;5114123;28;19912;-86
2022/08/06 09:43:34;;;;;;;1.33;0.77;;;;;;;28.74;29.16;102998.41;5114943;28;20028;-85
2022/08/06 09:45:59;;;;;;;1.13;0.60;;;;;;;28.91;28.64;103000.75;5114615;28;20051;-81
2022/08/06 09:48:24;;;;;;;1.90;0.70;;;;;;;29.11;28.70;102998.00;5120288;28;20437;-83
2022/08/06 09:50:50;;;;;;;0.65;0.55;;;;;;;29.53;29.84;102996.69;5114928;28;20377;-81
2022/08/06 09:53:18;;;;;;;1.70;0.57;;;;;;;29.61;28.58;103003.84;5113994;28;20023;-84
2022/08/06 09:55:44;;;;;;;0.60;0.40;;;;;;;27.68;30.36;102999.72;5113955;28;20023;-83
2022/08/06 09:58:10;;;;;;;0.75;0.40;;;;;;;26.44;31.60;103013.72;5114040;28;20027;-82
2022/08/06 10:00:37;;;;;;;0.90;0.50;;;;;;;26.81;32.02;102995.44;5112783;28;20096;-88
2022/08/06 10:03:07;;;;;;;2.15;0.80;;;;;;;27.76;30.57;103005.00;5113683;28;20031;-82
2022/08/06 10:05:33;;;;;;;1.75;0.85;;;;;;;28.12;30.50;103006.66;5113863;28;20038;-84
2022/08/06 10:08:09;;;;;;;0.55;0.50;;;;;;;28.24;30.22;103001.44;5112689;28;20127;-85
2022/08/06 10:10:47;;;;;;;3.45;0.70;;;;;;;28.47;31.51;103009.31;5114237;28;20039;-85
2022/08/06 10:13:18;;;;;;;2.00;0.65;;;;;;;29.08;28.46;103009.38;5114898;28;20028;-85
2022/08/06 10:15:45;;;;;;;3.05;0.60;;;;;;;28.56;29.09;103012.69;5112140;28;20369;-85
2022/08/06 10:18:31;;;;;;;2.15;0.60;;;;;;;28.74;27.97;103014.84;5112518;28;20501;-83
2022/08/06 10:21:10;;;;;;;3.25;0.60;;;;;;;29.13;28.50;103015.91;5114403;28;20036;-84
2022/08/06 10:23:39;;;;;;;0.95;0.70;;;;;;;29.89;27.85;103008.22;5121215;28;20024;-84
2022/08/06 10:26:11;;;;;;;1.40;0.65;;;;;;;29.37;26.92;103019.09;5113212;28;20027;-77
2022/08/06 10:28:39;;;;;;;2.78;0.40;;;;;;;27.17;29.37;103019.94;5113526;28;20035;-84
2022/08/06 10:31:10;;;;;;;2.80;0.52;;;;;;;24.96;32.52;103024.34;5113635;28;20056;-87
2022/08/06 10:33:49;;;;;;;;;;;;;;;24.37;33.17;103022.19;5114441;28;20495;-82
2022/08/06 10:36:20;;;;;;;1.90;0.70;;;;;;;26.04;33.36;103022.31;5113112;28;20004;-83
2022/08/06 10:38:49;;;;;;;0.93;0.55;;;;;;;27.01;31.00;103012.88;5112792;28;20024;-79
2022/08/06 10:41:16;;;;;;;1.60;0.45;;;;;;;27.10;31.11;103017.13;5113208;28;20031;-87
2022/08/06 10:43:42;;;;;;;1.90;0.68;;;;;;;28.05;31.17;103015.88;5112774;28;20028;-84
2022/08/06 10:46:12;;;;;;;0.35;0.35;;;;;;;28.50;28.97;103019.84;5113253;28;20076;-86
2022/08/06 10:48:39;;;;;;;5.75;0.80;;;;;;;29.27;28.78;103013.19;5112247;28;20364;-84
2022/08/06 10:51:08;;;;;;;1.77;0.60;;;;;;;29.51;26.31;103019.91;5112915;28;20095;-83
2022/08/06 10:53:36;;;;;;;0.32;0.30;;;;;;;29.34;26.93;103025.00;5112784;28;20424;-86
2022/08/06 10:56:04;;;;;;;5.00;0.70;;;;;;;29.65;26.93;103021.56;5112958;28;20032;-78
2022/08/06 10:58:31;;;;;;;1.50;0.73;;;;;;;29.79;26.46;103010.56;5111318;28;20027;-81
2022/08/06 11:01:04;;;;;;;2.45;0.60;;;;;;;30.00;25.40;103020.41;5112870;28;20032;-82
2022/08/06 11:03:58;;;;;;;1.30;0.50;;;;;;;30.16;25.54;103014.44;5113193;28;20028;-85
2022/08/06 11:06:35;;;;;;;1.23;0.47;;;;;;;29.96;24.93;103019.16;5113066;28;20036;-77
2022/08/06 11:09:24;;;;;;;1.35;0.45;;;;;;;29.40;25.25;103015.91;5112669;28;20032;-77
2022/08/06 11:12:08;;;;;;;1.33;0.40;;;;;;;29.42;26.49;103008.31;5112542;28;20036;-75
2022/08/06 11:14:38;;;;;;;2.95;0.60;;;;;;;29.27;25.98;103008.53;5112862;28;20472;-77
2022/08/06 11:17:04;;;;;;;1.13;0.50;;;;;;;29.16;26.20;103015.50;5113649;28;20098;-76
2022/08/06 11:19:41;;;;;;;1.60;0.63;;;;;;;29.05;25.70;103001.59;5111507;28;20143;-77
2022/08/06 11:22:07;;;;;;;1.05;0.60;;;;;;;29.57;25.69;102999.84;5112743;28;20067;-77
2022/08/06 11:24:32;;;;;;;0.52;0.38;;;;;;;29.81;26.44;103001.09;5111783;28;20097;-75
2022/08/06 11:26:58;;;;;;;0.50;0.40;;;;;;;29.98;26.57;103004.19;5114914;28;20031;-77
2022/08/06 11:29:23;;;;;;;1.60;0.45;;;;;;;29.72;24.58;102999.59;5116623;28;20031;-77
2022/08/06 11:31:51;;;;;;;1.30;0.52;;;;;;;29.57;23.75;102999.00;5116732;28;20035;-75
2022/08/06 11:34:18;;;;;;;1.52;0.60;;;;;;;29.47;25.73;103003.03;5116491;28;20527;-75
2022/08/06 11:37:02;;;;;;;1.13;0.57;;;;;;;29.84;26.39;102997.91;5115920;28;20314;-75
2022/08/06 11:39:27;;;;;;;2.28;0.68;;;;;;;29.52;26.28;103003.22;5117114;28;20126;-78